Weather at Aberdeen Dyce Airport

Public forecast

Using degrees Celsius for public forecast. Weather courtesy of forecast.io.

Current aviation weather report (METAR) for Aberdeen Dyce Airport

Retrieved 2021/10/16 04:20 UTC (12 minutes ago):

EGPD 160420Z AUTO 26004KT 230V290 9999 OVC049 05/01 Q1017

Aviation forecast (TAF) for Aberdeen Dyce Airport

Retrieved 2021-10-16 00:00 UTC (5 hours ago):

TAF EGPD 152256Z 1600/1624 26005KT 9999 SCT045 PROB40 TEMPO 1618/1623 6000 RA BECMG 1622/1624 BKN008 TEMPO 1623/1624 4000 RADZ BKN003 PROB40 TEMPO 1623/1624 2500 DZRA